sensor_id;sensor_type;location;lat;lon;timestamp;temperature;humidity
71291;DHT22;59073;51.994;4.448;2023-04-24T00:00:12;11.48;86.10
71291;DHT22;59073;51.994;4.448;2023-04-24T00:02:41;11.54;85.80
71291;DHT22;59073;51.994;4.448;2023-04-24T00:05:07;11.50;85.60
71291;DHT22;59073;51.994;4.448;2023-04-24T00:07:33;11.38;85.72
71291;DHT22;59073;51.994;4.448;2023-04-24T00:09:59;11.37;86.15
71291;DHT22;59073;51.994;4.448;2023-04-24T00:12:25;11.44;85.88
71291;DHT22;59073;51.994;4.448;2023-04-24T00:14:52;11.55;85.49
71291;DHT22;59073;51.994;4.448;2023-04-24T00:17:17;11.48;85.26
71291;DHT22;59073;51.994;4.448;2023-04-24T00:19:46;11.45;85.72
71291;DHT22;59073;51.994;4.448;2023-04-24T00:22:11;11.41;85.50
71291;DHT22;59073;51.994;4.448;2023-04-24T00:24:38;11.40;85.71
71291;DHT22;59073;51.994;4.448;2023-04-24T00:27:04;11.44;85.62
71291;DHT22;59073;51.994;4.448;2023-04-24T00:29:29;11.40;85.58
71291;DHT22;59073;51.994;4.448;2023-04-24T00:31:55;11.31;85.63
71291;DHT22;59073;51.994;4.448;2023-04-24T00:34:21;11.31;85.84
71291;DHT22;59073;51.994;4.448;2023-04-24T00:36:46;11.30;85.89
71291;DHT22;59073;51.994;4.448;2023-04-24T00:39:11;11.44;85.58
71291;DHT22;59073;51.994;4.448;2023-04-24T00:41:37;11.41;85.16
71291;DHT22;59073;51.994;4.448;2023-04-24T00:44:02;11.26;85.70
71291;DHT22;59073;51.994;4.448;2023-04-24T00:46:28;11.16;86.11
71291;DHT22;59073;51.994;4.448;2023-04-24T00:48:56;11.19;86.05
71291;DHT22;59073;51.994;4.448;2023-04-24T00:51:21;11.20;85.96
71291;DHT22;59073;51.994;4.448;2023-04-24T00:53:46;11.17;85.83
71291;DHT22;59073;51.994;4.448;2023-04-24T00:56:12;11.20;86.01
71291;DHT22;59073;51.994;4.448;2023-04-24T00:58:38;11.23;85.59
71291;DHT22;59073;51.994;4.448;2023-04-24T01:01:05;11.20;85.52
71291;DHT22;59073;51.994;4.448;2023-04-24T01:03:33;11.07;85.28
71291;DHT22;59073;51.994;4.448;2023-04-24T01:05:58;11.06;85.52
71291;DHT22;59073;51.994;4.448;2023-04-24T01:08:26;11.13;85.34
71291;DHT22;59073;51.994;4.448;2023-04-24T01:10:54;11.23;85.20
71291;DHT22;59073;51.994;4.448;2023-04-24T01:13:20;11.28;84.87
71291;DHT22;59073;51.994;4.448;2023-04-24T01:15:47;11.31;84.50
71291;DHT22;59073;51.994;4.448;2023-04-24T01:18:13;11.23;84.74
71291;DHT22;59073;51.994;4.448;2023-04-24T01:20:43;11.17;84.40
71291;DHT22;59073;51.994;4.448;2023-04-24T01:23:10;11.14;84.70
71291;DHT22;59073;51.994;4.448;2023-04-24T01:25:36;11.09;84.71
71291;DHT22;59073;51.994;4.448;2023-04-24T01:28:03;11.07;84.93
71291;DHT22;59073;51.994;4.448;2023-04-24T01:30:29;11.13;84.75
71291;DHT22;59073;51.994;4.448;2023-04-24T01:32:55;11.17;84.41
71291;DHT22;59073;51.994;4.448;2023-04-24T01:35:21;11.07;84.81
71291;DHT22;59073;51.994;4.448;2023-04-24T01:37:46;11.09;84.97
71291;DHT22;59073;51.994;4.448;2023-04-24T01:40:12;11.21;84.58
71291;DHT22;59073;51.994;4.448;2023-04-24T01:42:38;11.19;84.63
71291;DHT22;59073;51.994;4.448;2023-04-24T01:45:04;11.16;84.62
71291;DHT22;59073;51.994;4.448;2023-04-24T01:47:31;11.26;84.41
71291;DHT22;59073;51.994;4.448;2023-04-24T01:49:57;11.24;84.31
71291;DHT22;59073;51.994;4.448;2023-04-24T01:52:23;11.21;84.33
71291;DHT22;59073;51.994;4.448;2023-04-24T01:54:48;11.23;84.53
71291;DHT22;59073;51.994;4.448;2023-04-24T01:57:14;11.30;84.31
71291;DHT22;59073;51.994;4.448;2023-04-24T01:59:40;11.28;84.24
71291;DHT22;59073;51.994;4.448;2023-04-24T02:02:05;11.28;84.32
71291;DHT22;59073;51.994;4.448;2023-04-24T02:04:31;11.34;84.35
71291;DHT22;59073;51.994;4.448;2023-04-24T02:06:57;11.30;84.13
71291;DHT22;59073;51.994;4.448;2023-04-24T02:09:22;11.34;84.33
71291;DHT22;59073;51.994;4.448;2023-04-24T02:11:48;11.32;84.18
71291;DHT22;59073;51.994;4.448;2023-04-24T02:14:13;11.37;84.07
71291;DHT22;59073;51.994;4.448;2023-04-24T02:16:39;11.34;83.99
71291;DHT22;59073;51.994;4.448;2023-04-24T02:19:04;11.31;84.21
71291;DHT22;59073;51.994;4.448;2023-04-24T02:21:30;11.24;84.22
71291;DHT22;59073;51.994;4.448;2023-04-24T02:23:57;11.20;84.39
71291;DHT22;59073;51.994;4.448;2023-04-24T02:26:22;11.16;84.68
71291;DHT22;59073;51.994;4.448;2023-04-24T02:28:48;11.11;84.87
71291;DHT22;59073;51.994;4.448;2023-04-24T02:31:13;11.10;85.21
71291;DHT22;59073;51.994;4.448;2023-04-24T02:33:39;10.97;84.83
71291;DHT22;59073;51.994;4.448;2023-04-24T02:36:05;10.83;85.11
71291;DHT22;59073;51.994;4.448;2023-04-24T02:38:30;10.80;85.29
71291;DHT22;59073;51.994;4.448;2023-04-24T02:40:56;10.72;85.22
71291;DHT22;59073;51.994;4.448;2023-04-24T02:43:21;10.66;84.90
71291;DHT22;59073;51.994;4.448;2023-04-24T02:45:47;10.65;85.16
71291;DHT22;59073;51.994;4.448;2023-04-24T02:48:13;10.59;85.45
71291;DHT22;59073;51.994;4.448;2023-04-24T02:50:38;10.62;85.40
71291;DHT22;59073;51.994;4.448;2023-04-24T02:53:04;10.49;85.06
71291;DHT22;59073;51.994;4.448;2023-04-24T02:55:29;10.44;84.92
71291;DHT22;59073;51.994;4.448;2023-04-24T02:57:55;10.45;85.44
71291;DHT22;59073;51.994;4.448;2023-04-24T03:00:20;10.45;85.44
71291;DHT22;59073;51.994;4.448;2023-04-24T03:02:46;10.45;85.60
71291;DHT22;59073;51.994;4.448;2023-04-24T03:05:11;10.55;85.63
71291;DHT22;59073;51.994;4.448;2023-04-24T03:07:37;10.63;85.37
71291;DHT22;59073;51.994;4.448;2023-04-24T03:10:04;10.69;85.44
71291;DHT22;59073;51.994;4.448;2023-04-24T03:12:31;10.69;85.08
71291;DHT22;59073;51.994;4.448;2023-04-24T03:14:56;10.77;85.06
71291;DHT22;59073;51.994;4.448;2023-04-24T03:17:21;10.75;85.37
71291;DHT22;59073;51.994;4.448;2023-04-24T03:19:47;10.84;85.00
71291;DHT22;59073;51.994;4.448;2023-04-24T03:22:12;10.90;84.79
71291;DHT22;59073;51.994;4.448;2023-04-24T03:24:38;10.88;84.57
71291;DHT22;59073;51.994;4.448;2023-04-24T03:27:03;10.72;84.82
71291;DHT22;59073;51.994;4.448;2023-04-24T03:29:28;10.73;85.29
71291;DHT22;59073;51.994;4.448;2023-04-24T03:31:54;10.90;84.92
71291;DHT22;59073;51.994;4.448;2023-04-24T03:34:19;11.06;84.64
71291;DHT22;59073;51.994;4.448;2023-04-24T03:36:45;11.13;84.18
71291;DHT22;59073;51.994;4.448;2023-04-24T03:39:12;11.26;84.02
71291;DHT22;59073;51.994;4.448;2023-04-24T03:41:38;11.32;83.75
71291;DHT22;59073;51.994;4.448;2023-04-24T03:44:03;11.41;83.26
71291;DHT22;59073;51.994;4.448;2023-04-24T03:46:29;11.44;82.37
71291;DHT22;59073;51.994;4.448;2023-04-24T03:48:54;11.34;82.02
71291;DHT22;59073;51.994;4.448;2023-04-24T03:51:20;11.30;82.69
71291;DHT22;59073;51.994;4.448;2023-04-24T03:53:46;11.28;82.70
71291;DHT22;59073;51.994;4.448;2023-04-24T03:56:11;11.34;82.62
71291;DHT22;59073;51.994;4.448;2023-04-24T03:58:36;11.40;82.62
71291;DHT22;59073;51.994;4.448;2023-04-24T04:01:02;11.42;82.55
71291;DHT22;59073;51.994;4.448;2023-04-24T04:03:27;11.38;82.32
71291;DHT22;59073;51.994;4.448;2023-04-24T04:05:53;11.28;82.51
71291;DHT22;59073;51.994;4.448;2023-04-24T04:08:19;11.26;83.06
71291;DHT22;59073;51.994;4.448;2023-04-24T04:10:45;11.09;83.74
71291;DHT22;59073;51.994;4.448;2023-04-24T04:13:10;11.01;84.46
71291;DHT22;59073;51.994;4.448;2023-04-24T04:15:35;10.93;84.96
71291;DHT22;59073;51.994;4.448;2023-04-24T04:18:01;10.77;85.34
71291;DHT22;59073;51.994;4.448;2023-04-24T04:20:27;10.50;86.83
71291;DHT22;59073;51.994;4.448;2023-04-24T04:22:52;10.22;88.05
71291;DHT22;59073;51.994;4.448;2023-04-24T04:25:18;10.10;89.15
71291;DHT22;59073;51.994;4.448;2023-04-24T04:27:46;9.94;89.44
71291;DHT22;59073;51.994;4.448;2023-04-24T04:30:13;9.86;89.69
71291;DHT22;59073;51.994;4.448;2023-04-24T04:32:38;9.71;90.22
71291;DHT22;59073;51.994;4.448;2023-04-24T04:35:04;9.67;90.29
71291;DHT22;59073;51.994;4.448;2023-04-24T04:37:33;9.69;90.57
71291;DHT22;59073;51.994;4.448;2023-04-24T04:39:59;9.56;90.44
71291;DHT22;59073;51.994;4.448;2023-04-24T04:42:26;9.49;89.93
71291;DHT22;59073;51.994;4.448;2023-04-24T04:44:52;9.39;90.03
71291;DHT22;59073;51.994;4.448;2023-04-24T04:47:21;9.40;90.39
71291;DHT22;59073;51.994;4.448;2023-04-24T04:49:50;9.42;90.61
71291;DHT22;59073;51.994;4.448;2023-04-24T04:52:17;9.36;90.55
71291;DHT22;59073;51.994;4.448;2023-04-24T04:54:43;9.22;89.92
71291;DHT22;59073;51.994;4.448;2023-04-24T04:57:08;9.16;89.94
71291;DHT22;59073;51.994;4.448;2023-04-24T04:59:34;9.09;89.97
71291;DHT22;59073;51.994;4.448;2023-04-24T05:02:00;9.05;89.78
71291;DHT22;59073;51.994;4.448;2023-04-24T05:04:25;9.07;90.06
71291;DHT22;59073;51.994;4.448;2023-04-24T05:06:51;9.04;89.76
71291;DHT22;59073;51.994;4.448;2023-04-24T05:09:17;9.04;89.94
71291;DHT22;59073;51.994;4.448;2023-04-24T05:11:42;9.09;90.48
71291;DHT22;59073;51.994;4.448;2023-04-24T05:14:08;9.04;90.04
71291;DHT22;59073;51.994;4.448;2023-04-24T05:16:34;9.08;90.56
71291;DHT22;59073;51.994;4.448;2023-04-24T05:18:59;9.12;90.58
71291;DHT22;59073;51.994;4.448;2023-04-24T05:21:25;9.12;90.49
71291;DHT22;59073;51.994;4.448;2023-04-24T05:23:50;9.04;89.86
71291;DHT22;59073;51.994;4.448;2023-04-24T05:26:16;8.95;89.51
71291;DHT22;59073;51.994;4.448;2023-04-24T05:28:41;8.93;89.46
71291;DHT22;59073;51.994;4.448;2023-04-24T05:31:06;8.88;88.76
71291;DHT22;59073;51.994;4.448;2023-04-24T05:33:32;8.91;89.43
71291;DHT22;59073;51.994;4.448;2023-04-24T05:35:57;8.88;88.58
71291;DHT22;59073;51.994;4.448;2023-04-24T05:38:23;8.92;89.45
71291;DHT22;59073;51.994;4.448;2023-04-24T05:40:48;8.95;89.28
71291;DHT22;59073;51.994;4.448;2023-04-24T05:43:14;8.98;89.46
71291;DHT22;59073;51.994;4.448;2023-04-24T05:45:39;9.01;89.36
71291;DHT22;59073;51.994;4.448;2023-04-24T05:48:05;9.01;89.22
71291;DHT22;59073;51.994;4.448;2023-04-24T05:50:31;9.05;89.39
71291;DHT22;59073;51.994;4.448;2023-04-24T05:52:56;9.07;89.39
71291;DHT22;59073;51.994;4.448;2023-04-24T05:55:27;9.08;89.07
71291;DHT22;59073;51.994;4.448;2023-04-24T05:57:52;9.08;89.15
71291;DHT22;59073;51.994;4.448;2023-04-24T06:00:18;9.07;88.94
71291;DHT22;59073;51.994;4.448;2023-04-24T06:02:45;9.14;89.25
71291;DHT22;59073;51.994;4.448;2023-04-24T06:05:11;9.09;89.17
71291;DHT22;59073;51.994;4.448;2023-04-24T06:07:37;9.07;89.12
71291;DHT22;59073;51.994;4.448;2023-04-24T06:10:02;9.09;89.10
71291;DHT22;59073;51.994;4.448;2023-04-24T06:12:28;9.08;88.75
71291;DHT22;59073;51.994;4.448;2023-04-24T06:14:53;9.07;88.67
71291;DHT22;59073;51.994;4.448;2023-04-24T06:17:20;9.05;88.36
71291;DHT22;59073;51.994;4.448;2023-04-24T06:19:46;8.98;87.79
71291;DHT22;59073;51.994;4.448;2023-04-24T06:22:11;8.99;87.48
71291;DHT22;59073;51.994;4.448;2023-04-24T06:24:37;9.07;87.62
71291;DHT22;59073;51.994;4.448;2023-04-24T06:27:02;9.12;87.68
71291;DHT22;59073;51.994;4.448;2023-04-24T06:29:27;9.14;86.80
71291;DHT22;59073;51.994;4.448;2023-04-24T06:31:53;9.19;87.07
71291;DHT22;59073;51.994;4.448;2023-04-24T06:34:18;9.16;86.10
71291;DHT22;59073;51.994;4.448;2023-04-24T06:36:44;9.20;86.07
71291;DHT22;59073;51.994;4.448;2023-04-24T06:39:09;9.22;85.87
71291;DHT22;59073;51.994;4.448;2023-04-24T06:41:35;9.20;86.05
71291;DHT22;59073;51.994;4.448;2023-04-24T06:44:01;9.23;85.67
71291;DHT22;59073;51.994;4.448;2023-04-24T06:46:26;9.29;86.09
71291;DHT22;59073;51.994;4.448;2023-04-24T06:48:55;9.36;85.82
71291;DHT22;59073;51.994;4.448;2023-04-24T06:51:25;9.43;85.65
71291;DHT22;59073;51.994;4.448;2023-04-24T06:53:51;9.46;85.56
71291;DHT22;59073;51.994;4.448;2023-04-24T06:56:17;9.50;85.94
71291;DHT22;59073;51.994;4.448;2023-04-24T06:58:42;9.43;84.67
71291;DHT22;59073;51.994;4.448;2023-04-24T07:01:10;9.36;84.66
71291;DHT22;59073;51.994;4.448;2023-04-24T07:03:35;9.33;84.58
71291;DHT22;59073;51.994;4.448;2023-04-24T07:06:01;9.26;84.39
71291;DHT22;59073;51.994;4.448;2023-04-24T07:08:29;9.16;84.08
71291;DHT22;59073;51.994;4.448;2023-04-24T07:10:56;9.18;84.39
71291;DHT22;59073;51.994;4.448;2023-04-24T07:13:23;9.19;83.68
71291;DHT22;59073;51.994;4.448;2023-04-24T07:15:48;9.35;84.77
71291;DHT22;59073;51.994;4.448;2023-04-24T07:18:16;9.54;85.19
71291;DHT22;59073;51.994;4.448;2023-04-24T07:20:42;9.54;83.36
71291;DHT22;59073;51.994;4.448;2023-04-24T07:23:07;9.59;82.44
71291;DHT22;59073;51.994;4.448;2023-04-24T07:25:33;9.57;81.76
71291;DHT22;59073;51.994;4.448;2023-04-24T07:27:59;9.61;81.60
71291;DHT22;59073;51.994;4.448;2023-04-24T07:30:24;9.60;81.43
71291;DHT22;59073;51.994;4.448;2023-04-24T07:32:50;9.60;80.85
71291;DHT22;59073;51.994;4.448;2023-04-24T07:35:15;9.63;81.13
71291;DHT22;59073;51.994;4.448;2023-04-24T07:37:41;9.60;80.76
71291;DHT22;59073;51.994;4.448;2023-04-24T07:40:14;9.57;80.03
71291;DHT22;59073;51.994;4.448;2023-04-24T07:42:40;9.63;80.81
71291;DHT22;59073;51.994;4.448;2023-04-24T07:45:06;9.67;80.37
71291;DHT22;59073;51.994;4.448;2023-04-24T07:47:32;9.69;80.34
71291;DHT22;59073;51.994;4.448;2023-04-24T07:49:59;9.71;80.00
71291;DHT22;59073;51.994;4.448;2023-04-24T07:52:24;9.66;80.01
71291;DHT22;59073;51.994;4.448;2023-04-24T07:54:50;9.59;78.42
71291;DHT22;59073;51.994;4.448;2023-04-24T07:57:16;9.76;79.43
71291;DHT22;59073;51.994;4.448;2023-04-24T07:59:42;9.64;75.78
71291;DHT22;59073;51.994;4.448;2023-04-24T08:02:07;9.63;77.31
71291;DHT22;59073;51.994;4.448;2023-04-24T08:04:33;9.57;76.72
71291;DHT22;59073;51.994;4.448;2023-04-24T08:06:58;9.47;77.28
71291;DHT22;59073;51.994;4.448;2023-04-24T08:09:24;9.47;77.45
71291;DHT22;59073;51.994;4.448;2023-04-24T08:11:49;9.57;78.73
71291;DHT22;59073;51.994;4.448;2023-04-24T08:14:15;9.64;78.77
71291;DHT22;59073;51.994;4.448;2023-04-24T08:16:40;9.81;77.41
71291;DHT22;59073;51.994;4.448;2023-04-24T08:19:06;9.76;74.47
71291;DHT22;59073;51.994;4.448;2023-04-24T08:21:32;9.80;74.49
71291;DHT22;59073;51.994;4.448;2023-04-24T08:23:57;9.88;75.65
71291;DHT22;59073;51.994;4.448;2023-04-24T08:26:23;10.00;74.72
71291;DHT22;59073;51.994;4.448;2023-04-24T08:28:48;10.12;74.51
71291;DHT22;59073;51.994;4.448;2023-04-24T08:31:14;10.20;72.86
71291;DHT22;59073;51.994;4.448;2023-04-24T08:33:39;10.20;73.97
71291;DHT22;59073;51.994;4.448;2023-04-24T08:36:07;10.20;73.88
71291;DHT22;59073;51.994;4.448;2023-04-24T08:38:33;9.87;74.17
71291;DHT22;59073;51.994;4.448;2023-04-24T08:41:00;9.79;74.36
71291;DHT22;59073;51.994;4.448;2023-04-24T08:43:27;9.77;73.16
71291;DHT22;59073;51.994;4.448;2023-04-24T08:45:55;9.77;75.43
71291;DHT22;59073;51.994;4.448;2023-04-24T08:48:22;9.88;74.73
71291;DHT22;59073;51.994;4.448;2023-04-24T08:50:50;10.02;75.05
71291;DHT22;59073;51.994;4.448;2023-04-24T08:53:18;10.11;72.52
71291;DHT22;59073;51.994;4.448;2023-04-24T08:55:46;10.07;73.21
71291;DHT22;59073;51.994;4.448;2023-04-24T08:58:13;10.12;73.30
71291;DHT22;59073;51.994;4.448;2023-04-24T09:00:39;10.10;75.41
71291;DHT22;59073;51.994;4.448;2023-04-24T09:03:05;9.97;74.94
71291;DHT22;59073;51.994;4.448;2023-04-24T09:05:32;9.54;75.64
71291;DHT22;59073;51.994;4.448;2023-04-24T09:07:59;9.63;77.36
71291;DHT22;59073;51.994;4.448;2023-04-24T09:10:25;9.66;77.39
71291;DHT22;59073;51.994;4.448;2023-04-24T09:12:52;9.79;76.75
71291;DHT22;59073;51.994;4.448;2023-04-24T09:15:20;9.83;75.31
71291;DHT22;59073;51.994;4.448;2023-04-24T09:17:46;10.24;76.09
71291;DHT22;59073;51.994;4.448;2023-04-24T09:20:12;10.20;73.87
71291;DHT22;59073;51.994;4.448;2023-04-24T09:22:37;10.37;74.36
71291;DHT22;59073;51.994;4.448;2023-04-24T09:25:05;10.50;73.45
71291;DHT22;59073;51.994;4.448;2023-04-24T09:27:33;10.70;73.39
71291;DHT22;59073;51.994;4.448;2023-04-24T09:29:59;10.86;73.84
71291;DHT22;59073;51.994;4.448;2023-04-24T09:32:25;11.11;72.20
71291;DHT22;59073;51.994;4.448;2023-04-24T09:35:13;11.16;71.00
71291;DHT22;59073;51.994;4.448;2023-04-24T09:37:45;11.42;72.36
71291;DHT22;59073;51.994;4.448;2023-04-24T09:40:19;11.28;72.79
71291;DHT22;59073;51.994;4.448;2023-04-24T09:42:51;11.32;73.10
71291;DHT22;59073;51.994;4.448;2023-04-24T09:45:16;11.16;72.44
71291;DHT22;59073;51.994;4.448;2023-04-24T09:47:42;11.11;72.63
71291;DHT22;59073;51.994;4.448;2023-04-24T09:50:15;10.90;72.07
71291;DHT22;59073;51.994;4.448;2023-04-24T09:52:43;11.07;73.31
71291;DHT22;59073;51.994;4.448;2023-04-24T09:55:19;10.95;72.90
71291;DHT22;59073;51.994;4.448;2023-04-24T10:00:25;10.75;71.72
71291;DHT22;59073;51.994;4.448;2023-04-24T10:03:02;10.70;73.89
71291;DHT22;59073;51.994;4.448;2023-04-24T10:05:30;10.56;71.38
71291;DHT22;59073;51.994;4.448;2023-04-24T10:07:59;10.70;72.07
71291;DHT22;59073;51.994;4.448;2023-04-24T10:10:25;10.90;72.74
71291;DHT22;59073;51.994;4.448;2023-04-24T10:12:51;11.20;70.50
71291;DHT22;59073;51.994;4.448;2023-04-24T10:15:16;11.21;72.23
71291;DHT22;59073;51.994;4.448;2023-04-24T10:17:48;10.92;71.41
71291;DHT22;59073;51.994;4.448;2023-04-24T10:20:18;10.70;72.16
71291;DHT22;59073;51.994;4.448;2023-04-24T10:22:48;10.35;73.93
71291;DHT22;59073;51.994;4.448;2023-04-24T10:25:17;9.77;77.73
71291;DHT22;59073;51.994;4.448;2023-04-24T10:27:45;9.77;77.29
71291;DHT22;59073;51.994;4.448;2023-04-24T10:30:12;9.95;77.36
71291;DHT22;59073;51.994;4.448;2023-04-24T10:32:38;10.28;77.74
71291;DHT22;59073;51.994;4.448;2023-04-24T10:35:05;10.44;76.96
71291;DHT22;59073;51.994;4.448;2023-04-24T10:37:39;10.50;77.03
71291;DHT22;59073;51.994;4.448;2023-04-24T10:40:06;10.76;75.48
71291;DHT22;59073;51.994;4.448;2023-04-24T10:42:33;10.93;74.75
71291;DHT22;59073;51.994;4.448;2023-04-24T10:44:58;11.09;73.19
71291;DHT22;59073;51.994;4.448;2023-04-24T10:47:27;11.52;74.23
71291;DHT22;59073;51.994;4.448;2023-04-24T10:49:52;12.28;73.01
71291;DHT22;59073;51.994;4.448;2023-04-24T10:52:18;12.15;70.85
71291;DHT22;59073;51.994;4.448;2023-04-24T10:54:46;12.02;69.74
71291;DHT22;59073;51.994;4.448;2023-04-24T10:59:43;10.90;72.03
71291;DHT22;59073;51.994;4.448;2023-04-24T11:02:10;10.70;74.31
71291;DHT22;59073;51.994;4.448;2023-04-24T11:04:35;10.93;71.86
71291;DHT22;59073;51.994;4.448;2023-04-24T11:07:03;11.28;69.71
71291;DHT22;59073;51.994;4.448;2023-04-24T11:09:32;11.98;72.03
71291;DHT22;59073;51.994;4.448;2023-04-24T11:12:08;12.05;69.93
71291;DHT22;59073;51.994;4.448;2023-04-24T11:17:32;12.20;69.15
71291;DHT22;59073;51.994;4.448;2023-04-24T11:20:07;12.20;69.18
71291;DHT22;59073;51.994;4.448;2023-04-24T11:22:36;12.51;66.69
71291;DHT22;59073;51.994;4.448;2023-04-24T11:25:03;13.01;66.53
71291;DHT22;59073;51.994;4.448;2023-04-24T11:27:31;13.01;64.47
71291;DHT22;59073;51.994;4.448;2023-04-24T11:32:26;12.50;66.72
71291;DHT22;59073;51.994;4.448;2023-04-24T11:34:58;12.39;65.66
71291;DHT22;59073;51.994;4.448;2023-04-24T11:37:27;12.36;66.11
71291;DHT22;59073;51.994;4.448;2023-04-24T11:39:55;12.28;65.37
71291;DHT22;59073;51.994;4.448;2023-04-24T11:42:22;12.25;66.60
71291;DHT22;59073;51.994;4.448;2023-04-24T11:44:49;12.25;67.14
71291;DHT22;59073;51.994;4.448;2023-04-24T11:47:15;12.30;66.10
71291;DHT22;59073;51.994;4.448;2023-04-24T11:49:41;12.43;67.82
71291;DHT22;59073;51.994;4.448;2023-04-24T11:52:06;12.40;67.02
71291;DHT22;59073;51.994;4.448;2023-04-24T11:54:32;12.40;67.84
71291;DHT22;59073;51.994;4.448;2023-04-24T11:56:57;12.59;68.44
71291;DHT22;59073;51.994;4.448;2023-04-24T11:59:23;12.87;67.26
71291;DHT22;59073;51.994;4.448;2023-04-24T12:01:49;13.02;66.45
71291;DHT22;59073;51.994;4.448;2023-04-24T12:04:17;12.80;65.03
71291;DHT22;59073;51.994;4.448;2023-04-24T12:07:04;12.81;65.98
71291;DHT22;59073;51.994;4.448;2023-04-24T12:10:00;11.54;66.25
71291;DHT22;59073;51.994;4.448;2023-04-24T12:12:26;10.76;70.53
71291;DHT22;59073;51.994;4.448;2023-04-24T12:14:54;10.42;75.04
71291;DHT22;59073;51.994;4.448;2023-04-24T12:17:32;9.88;75.59
71291;DHT22;59073;51.994;4.448;2023-04-24T12:20:03;9.77;74.58
71291;DHT22;59073;51.994;4.448;2023-04-24T12:22:50;9.63;77.19
71291;DHT22;59073;51.994;4.448;2023-04-24T12:25:18;10.01;80.17
71291;DHT22;59073;51.994;4.448;2023-04-24T12:28:13;11.00;80.71
71291;DHT22;59073;51.994;4.448;2023-04-24T12:30:43;11.24;78.14
71291;DHT22;59073;51.994;4.448;2023-04-24T12:33:10;11.52;75.80
71291;DHT22;59073;51.994;4.448;2023-04-24T12:35:36;11.72;74.07
71291;DHT22;59073;51.994;4.448;2023-04-24T12:38:15;11.72;71.18
71291;DHT22;59073;51.994;4.448;2023-04-24T12:40:42;11.45;68.81
71291;DHT22;59073;51.994;4.448;2023-04-24T12:43:18;11.40;70.94
71291;DHT22;59073;51.994;4.448;2023-04-24T12:45:45;11.55;72.38
71291;DHT22;59073;51.994;4.448;2023-04-24T12:48:11;11.69;71.79
71291;DHT22;59073;51.994;4.448;2023-04-24T12:50:38;11.60;68.45
71291;DHT22;59073;51.994;4.448;2023-04-24T12:53:03;11.65;69.98
71291;DHT22;59073;51.994;4.448;2023-04-24T12:55:29;11.78;70.38
71291;DHT22;59073;51.994;4.448;2023-04-24T12:57:54;11.69;70.10
71291;DHT22;59073;51.994;4.448;2023-04-24T13:00:21;11.86;70.85
71291;DHT22;59073;51.994;4.448;2023-04-24T13:02:47;11.65;69.73
71291;DHT22;59073;51.994;4.448;2023-04-24T13:05:12;11.13;67.37
71291;DHT22;59073;51.994;4.448;2023-04-24T13:07:39;10.69;70.61
71291;DHT22;59073;51.994;4.448;2023-04-24T13:10:05;10.84;72.23
71291;DHT22;59073;51.994;4.448;2023-04-24T13:12:31;10.95;70.82
71291;DHT22;59073;51.994;4.448;2023-04-24T13:14:57;10.95;70.30
71291;DHT22;59073;51.994;4.448;2023-04-24T13:17:23;10.88;72.02
71291;DHT22;59073;51.994;4.448;2023-04-24T13:19:50;11.28;72.79
71291;DHT22;59073;51.994;4.448;2023-04-24T13:22:17;11.38;69.80
71291;DHT22;59073;51.994;4.448;2023-04-24T13:24:44;11.38;70.59
71291;DHT22;59073;51.994;4.448;2023-04-24T13:27:10;11.65;70.29
71291;DHT22;59073;51.994;4.448;2023-04-24T13:29:36;12.09;71.92
71291;DHT22;59073;51.994;4.448;2023-04-24T13:32:02;12.34;68.83
71291;DHT22;59073;51.994;4.448;2023-04-24T13:34:27;12.63;67.47
71291;DHT22;59073;51.994;4.448;2023-04-24T13:36:55;12.60;65.93
71291;DHT22;59073;51.994;4.448;2023-04-24T13:39:22;12.46;66.92
71291;DHT22;59073;51.994;4.448;2023-04-24T13:41:47;12.47;66.02
71291;DHT22;59073;51.994;4.448;2023-04-24T13:44:14;12.78;65.88
71291;DHT22;59073;51.994;4.448;2023-04-24T13:46:41;12.28;64.49
71291;DHT22;59073;51.994;4.448;2023-04-24T13:49:06;12.43;65.28
71291;DHT22;59073;51.994;4.448;2023-04-24T13:51:32;12.15;64.44
71291;DHT22;59073;51.994;4.448;2023-04-24T13:53:58;11.78;62.91
71291;DHT22;59073;51.994;4.448;2023-04-24T13:56:23;11.52;64.33
71291;DHT22;59073;51.994;4.448;2023-04-24T13:58:48;11.48;66.27
71291;DHT22;59073;51.994;4.448;2023-04-24T14:01:14;11.83;67.74
71291;DHT22;59073;51.994;4.448;2023-04-24T14:03:41;12.12;68.22
71291;DHT22;59073;51.994;4.448;2023-04-24T14:06:07;12.15;67.16
71291;DHT22;59073;51.994;4.448;2023-04-24T14:08:32;11.85;66.47
71291;DHT22;59073;51.994;4.448;2023-04-24T14:10:58;11.45;67.54
71291;DHT22;59073;51.994;4.448;2023-04-24T14:13:23;11.32;68.29
71291;DHT22;59073;51.994;4.448;2023-04-24T14:15:49;10.48;69.79
71291;DHT22;59073;51.994;4.448;2023-04-24T14:18:15;10.27;72.63
71291;DHT22;59073;51.994;4.448;2023-04-24T14:20:40;10.34;70.33
71291;DHT22;59073;51.994;4.448;2023-04-24T14:23:06;10.86;70.56
71291;DHT22;59073;51.994;4.448;2023-04-24T14:25:31;11.06;71.09
71291;DHT22;59073;51.994;4.448;2023-04-24T14:27:56;11.14;69.08
71291;DHT22;59073;51.994;4.448;2023-04-24T14:30:22;11.30;68.29
71291;DHT22;59073;51.994;4.448;2023-04-24T14:32:48;11.23;67.62
71291;DHT22;59073;51.994;4.448;2023-04-24T14:35:14;11.23;68.04
71291;DHT22;59073;51.994;4.448;2023-04-24T14:37:39;11.40;68.24
71291;DHT22;59073;51.994;4.448;2023-04-24T14:40:07;11.27;68.08
71291;DHT22;59073;51.994;4.448;2023-04-24T14:42:33;11.17;68.37
71291;DHT22;59073;51.994;4.448;2023-04-24T14:44:59;11.60;69.95
71291;DHT22;59073;51.994;4.448;2023-04-24T14:47:24;12.06;67.92
71291;DHT22;59073;51.994;4.448;2023-04-24T14:49:50;11.83;66.96
71291;DHT22;59073;51.994;4.448;2023-04-24T14:52:16;11.86;67.31
71291;DHT22;59073;51.994;4.448;2023-04-24T14:54:42;11.45;65.92
71291;DHT22;59073;51.994;4.448;2023-04-24T14:57:08;11.52;67.59
71291;DHT22;59073;51.994;4.448;2023-04-24T14:59:33;11.42;66.89
71291;DHT22;59073;51.994;4.448;2023-04-24T15:01:59;11.23;67.31
71291;DHT22;59073;51.994;4.448;2023-04-24T15:04:24;11.09;67.33
71291;DHT22;59073;51.994;4.448;2023-04-24T15:06:54;11.11;66.58
71291;DHT22;59073;51.994;4.448;2023-04-24T15:09:21;11.32;66.71
71291;DHT22;59073;51.994;4.448;2023-04-24T15:11:47;11.26;67.01
71291;DHT22;59073;51.994;4.448;2023-04-24T15:14:13;11.21;67.69
71291;DHT22;59073;51.994;4.448;2023-04-24T15:16:38;11.26;68.45
71291;DHT22;59073;51.994;4.448;2023-04-24T15:19:03;11.57;68.74
71291;DHT22;59073;51.994;4.448;2023-04-24T15:21:29;11.48;69.60
71291;DHT22;59073;51.994;4.448;2023-04-24T15:23:54;11.21;68.44
71291;DHT22;59073;51.994;4.448;2023-04-24T15:26:20;10.39;68.51
71291;DHT22;59073;51.994;4.448;2023-04-24T15:28:46;10.41;70.12
71291;DHT22;59073;51.994;4.448;2023-04-24T15:31:12;10.70;70.62
71291;DHT22;59073;51.994;4.448;2023-04-24T15:33:37;10.93;67.65
71291;DHT22;59073;51.994;4.448;2023-04-24T15:36:03;11.06;67.33
71291;DHT22;59073;51.994;4.448;2023-04-24T15:38:28;11.09;67.04
71291;DHT22;59073;51.994;4.448;2023-04-24T15:40:54;11.19;67.50